sensor_id;sensor_type;location;lat;lon;timestamp;pressure;altitude;pressure_sealevel;temperature;humidity
21100;BME280;10708;50.824;4.408;2023-03-14T00:02:04;98145.69;;;10.84;100.00
21100;BME280;10708;50.824;4.408;2023-03-14T00:07:10;98152.00;;;10.82;100.00
21100;BME280;10708;50.824;4.408;2023-03-14T00:12:12;98164.19;;;10.71;100.00
21100;BME280;10708;50.824;4.408;2023-03-14T00:17:15;98175.50;;;10.61;100.00
21100;BME280;10708;50.824;4.408;2023-03-14T00:22:19;98173.22;;;10.56;100.00
21100;BME280;10708;50.824;4.408;2023-03-14T00:27:21;98175.13;;;10.54;100.00
21100;BME280;10708;50.824;4.408;2023-03-14T00:32:23;98173.66;;;10.50;100.00
21100;BME280;10708;50.824;4.408;2023-03-14T00:37:27;98175.44;;;10.50;100.00
21100;BME280;10708;50.824;4.408;2023-03-14T00:42:29;98174.72;;;10.48;100.00
21100;BME280;10708;50.824;4.408;2023-03-14T00:47:32;98172.69;;;10.51;100.00
21100;BME280;10708;50.824;4.408;2023-03-14T00:52:36;98159.22;;;10.56;100.00
21100;BME280;10708;50.824;4.408;2023-03-14T00:57:38;98162.69;;;10.56;100.00
21100;BME280;10708;50.824;4.408;2023-03-14T01:02:41;98161.97;;;10.54;100.00
21100;BME280;10708;50.824;4.408;2023-03-14T01:07:44;98158.59;;;10.52;100.00
21100;BME280;10708;50.824;4.408;2023-03-14T01:12:47;98158.28;;;10.57;100.00
21100;BME280;10708;50.824;4.408;2023-03-14T01:17:49;98146.78;;;10.58;100.00
21100;BME280;10708;50.824;4.408;2023-03-14T01:22:53;98128.59;;;10.55;100.00
21100;BME280;10708;50.824;4.408;2023-03-14T01:27:55;98122.81;;;10.50;100.00
21100;BME280;10708;50.824;4.408;2023-03-14T01:32:57;98103.28;;;10.41;100.00
21100;BME280;10708;50.824;4.408;2023-03-14T01:38:01;98097.88;;;10.31;100.00
21100;BME280;10708;50.824;4.408;2023-03-14T01:43:13;98105.69;;;10.20;100.00
21100;BME280;10708;50.824;4.408;2023-03-14T01:48:16;98103.59;;;10.13;100.00
21100;BME280;10708;50.824;4.408;2023-03-14T01:53:20;98104.66;;;10.10;100.00
21100;BME280;10708;50.824;4.408;2023-03-14T01:58:24;98102.09;;;9.97;100.00
21100;BME280;10708;50.824;4.408;2023-03-14T02:03:29;98106.66;;;9.70;100.00
21100;BME280;10708;50.824;4.408;2023-03-14T02:08:35;98105.56;;;9.49;100.00
21100;BME280;10708;50.824;4.408;2023-03-14T02:13:39;98106.72;;;9.32;100.00
21100;BME280;10708;50.824;4.408;2023-03-14T02:18:41;98104.09;;;9.19;100.00
21100;BME280;10708;50.824;4.408;2023-03-14T02:23:50;98109.16;;;9.10;100.00
21100;BME280;10708;50.824;4.408;2023-03-14T02:28:57;98105.06;;;9.06;100.00
21100;BME280;10708;50.824;4.408;2023-03-14T02:34:00;98112.22;;;9.04;100.00
21100;BME280;10708;50.824;4.408;2023-03-14T02:39:07;98113.34;;;9.00;100.00
21100;BME280;10708;50.824;4.408;2023-03-14T02:44:14;98102.97;;;8.98;100.00
21100;BME280;10708;50.824;4.408;2023-03-14T02:49:17;98096.16;;;8.96;100.00
21100;BME280;10708;50.824;4.408;2023-03-14T02:54:20;98096.88;;;8.98;100.00
21100;BME280;10708;50.824;4.408;2023-03-14T02:59:25;98096.03;;;8.97;100.00
21100;BME280;10708;50.824;4.408;2023-03-14T03:04:27;98100.22;;;9.00;100.00
21100;BME280;10708;50.824;4.408;2023-03-14T03:09:30;98093.94;;;9.02;100.00
21100;BME280;10708;50.824;4.408;2023-03-14T03:14:34;98100.75;;;9.05;100.00
21100;BME280;10708;50.824;4.408;2023-03-14T03:19:36;98089.22;;;9.07;100.00
21100;BME280;10708;50.824;4.408;2023-03-14T03:24:38;98082.06;;;9.09;100.00
21100;BME280;10708;50.824;4.408;2023-03-14T03:29:42;98090.56;;;9.13;100.00
21100;BME280;10708;50.824;4.408;2023-03-14T03:34:44;98100.88;;;9.16;100.00
21100;BME280;10708;50.824;4.408;2023-03-14T03:39:46;98088.59;;;9.16;100.00
21100;BME280;10708;50.824;4.408;2023-03-14T03:44:50;98087.50;;;9.19;100.00
21100;BME280;10708;50.824;4.408;2023-03-14T03:49:53;98084.88;;;9.19;100.00
21100;BME280;10708;50.824;4.408;2023-03-14T03:54:55;98081.22;;;9.21;100.00
21100;BME280;10708;50.824;4.408;2023-03-14T03:59:59;98070.72;;;9.21;100.00
21100;BME280;10708;50.824;4.408;2023-03-14T04:05:01;98067.97;;;9.23;100.00
21100;BME280;10708;50.824;4.408;2023-03-14T04:10:04;98083.63;;;9.24;100.00
21100;BME280;10708;50.824;4.408;2023-03-14T04:15:09;98077.34;;;9.27;100.00
21100;BME280;10708;50.824;4.408;2023-03-14T04:20:12;98079.72;;;9.30;100.00
21100;BME280;10708;50.824;4.408;2023-03-14T04:25:14;98075.44;;;9.29;100.00
21100;BME280;10708;50.824;4.408;2023-03-14T04:30:19;98080.56;;;9.31;100.00
21100;BME280;10708;50.824;4.408;2023-03-14T04:35:21;98075.13;;;9.34;100.00
21100;BME280;10708;50.824;4.408;2023-03-14T04:40:24;98070.72;;;9.34;100.00
21100;BME280;10708;50.824;4.408;2023-03-14T04:45:27;98079.09;;;9.39;100.00
21100;BME280;10708;50.824;4.408;2023-03-14T04:50:29;98087.81;;;9.40;100.00
21100;BME280;10708;50.824;4.408;2023-03-14T04:55:32;98081.50;;;9.42;100.00
21100;BME280;10708;50.824;4.408;2023-03-14T05:00:36;98067.44;;;9.43;100.00
21100;BME280;10708;50.824;4.408;2023-03-14T05:05:39;98057.78;;;9.44;100.00
21100;BME280;10708;50.824;4.408;2023-03-14T05:10:41;98061.13;;;9.46;100.00
21100;BME280;10708;50.824;4.408;2023-03-14T05:15:45;98057.44;;;9.48;100.00
21100;BME280;10708;50.824;4.408;2023-03-14T05:20:50;98052.06;;;9.50;100.00
21100;BME280;10708;50.824;4.408;2023-03-14T05:25:52;98043.47;;;9.48;100.00
21100;BME280;10708;50.824;4.408;2023-03-14T05:30:56;98053.84;;;9.49;100.00
21100;BME280;10708;50.824;4.408;2023-03-14T05:35:58;98051.13;;;9.51;100.00
21100;BME280;10708;50.824;4.408;2023-03-14T05:41:00;98051.84;;;9.53;100.00
21100;BME280;10708;50.824;4.408;2023-03-14T05:46:05;98048.50;;;9.51;100.00
21100;BME280;10708;50.824;4.408;2023-03-14T05:51:07;98045.03;;;9.50;100.00
21100;BME280;10708;50.824;4.408;2023-03-14T05:56:09;98051.13;;;9.51;100.00
21100;BME280;10708;50.824;4.408;2023-03-14T06:01:13;98055.63;;;9.49;100.00
21100;BME280;10708;50.824;4.408;2023-03-14T06:06:16;98057.09;;;9.53;100.00
21100;BME280;10708;50.824;4.408;2023-03-14T06:11:18;98066.69;;;9.54;100.00
21100;BME280;10708;50.824;4.408;2023-03-14T06:16:22;98073.72;;;9.53;100.00
21100;BME280;10708;50.824;4.408;2023-03-14T06:21:25;98084.97;;;9.55;100.00
21100;BME280;10708;50.824;4.408;2023-03-14T06:26:27;98095.56;;;9.54;100.00
21100;BME280;10708;50.824;4.408;2023-03-14T06:31:31;98092.75;;;9.57;100.00
21100;BME280;10708;50.824;4.408;2023-03-14T06:36:33;98093.91;;;9.53;100.00
21100;BME280;10708;50.824;4.408;2023-03-14T06:41:36;98097.66;;;9.49;100.00
21100;BME280;10708;50.824;4.408;2023-03-14T06:46:39;98119.53;;;9.49;100.00
21100;BME280;10708;50.824;4.408;2023-03-14T06:51:42;98175.88;;;9.45;100.00
21100;BME280;10708;50.824;4.408;2023-03-14T06:56:44;98215.38;;;8.52;100.00
21100;BME280;10708;50.824;4.408;2023-03-14T07:01:48;98250.84;;;8.02;100.00
21100;BME280;10708;50.824;4.408;2023-03-14T07:06:51;98272.94;;;7.84;100.00
21100;BME280;10708;50.824;4.408;2023-03-14T07:11:54;98317.44;;;7.56;100.00
21100;BME280;10708;50.824;4.408;2023-03-14T07:16:57;98340.34;;;7.22;100.00
21100;BME280;10708;50.824;4.408;2023-03-14T07:22:00;98380.72;;;7.02;100.00
21100;BME280;10708;50.824;4.408;2023-03-14T07:27:02;98383.44;;;6.85;100.00
21100;BME280;10708;50.824;4.408;2023-03-14T07:32:06;98394.63;;;6.72;100.00
21100;BME280;10708;50.824;4.408;2023-03-14T07:37:08;98429.81;;;6.66;100.00
21100;BME280;10708;50.824;4.408;2023-03-14T07:42:11;98449.38;;;6.59;100.00
21100;BME280;10708;50.824;4.408;2023-03-14T07:47:14;98455.44;;;6.59;100.00
21100;BME280;10708;50.824;4.408;2023-03-14T07:52:17;98473.69;;;6.61;100.00
21100;BME280;10708;50.824;4.408;2023-03-14T07:57:19;98493.75;;;6.60;100.00
21100;BME280;10708;50.824;4.408;2023-03-14T08:02:23;98492.91;;;6.60;100.00
21100;BME280;10708;50.824;4.408;2023-03-14T08:07:25;98515.44;;;6.62;100.00
21100;BME280;10708;50.824;4.408;2023-03-14T08:12:28;98531.22;;;6.61;100.00
21100;BME280;10708;50.824;4.408;2023-03-14T08:17:32;98541.75;;;6.59;100.00
21100;BME280;10708;50.824;4.408;2023-03-14T08:22:34;98573.91;;;6.61;100.00
21100;BME280;10708;50.824;4.408;2023-03-14T08:27:36;98604.97;;;6.50;100.00
21100;BME280;10708;50.824;4.408;2023-03-14T08:32:41;98615.53;;;6.49;100.00
21100;BME280;10708;50.824;4.408;2023-03-14T08:37:43;98638.66;;;6.39;100.00
21100;BME280;10708;50.824;4.408;2023-03-14T08:42:45;98645.03;;;6.34;100.00
21100;BME280;10708;50.824;4.408;2023-03-14T08:47:49;98687.69;;;6.17;100.00
21100;BME280;10708;50.824;4.408;2023-03-14T08:52:52;98679.78;;;6.00;100.00
21100;BME280;10708;50.824;4.408;2023-03-14T08:57:54;98704.56;;;5.91;100.00
21100;BME280;10708;50.824;4.408;2023-03-14T09:02:58;98728.28;;;5.86;100.00
21100;BME280;10708;50.824;4.408;2023-03-14T09:08:00;98751.00;;;5.84;100.00
21100;BME280;10708;50.824;4.408;2023-03-14T09:13:03;98758.13;;;5.81;100.00
21100;BME280;10708;50.824;4.408;2023-03-14T09:18:07;98756.56;;;5.77;100.00
21100;BME280;10708;50.824;4.408;2023-03-14T09:23:09;98795.09;;;5.72;100.00
21100;BME280;10708;50.824;4.408;2023-03-14T09:28:12;98822.91;;;5.73;100.00
21100;BME280;10708;50.824;4.408;2023-03-14T09:33:15;98826.31;;;5.75;100.00
21100;BME280;10708;50.824;4.408;2023-03-14T09:38:18;98839.09;;;5.81;100.00
21100;BME280;10708;50.824;4.408;2023-03-14T09:43:22;98862.31;;;5.68;100.00
21100;BME280;10708;50.824;4.408;2023-03-14T09:48:30;98878.22;;;5.62;100.00
21100;BME280;10708;50.824;4.408;2023-03-14T09:53:37;98894.56;;;5.67;100.00
21100;BME280;10708;50.824;4.408;2023-03-14T09:58:43;98914.59;;;5.67;100.00
21100;BME280;10708;50.824;4.408;2023-03-14T10:03:47;98929.19;;;5.71;100.00
21100;BME280;10708;50.824;4.408;2023-03-14T10:08:50;98961.59;;;5.67;100.00
21100;BME280;10708;50.824;4.408;2023-03-14T10:14:05;98961.28;;;5.74;100.00
21100;BME280;10708;50.824;4.408;2023-03-14T10:19:13;98975.59;;;5.86;100.00
21100;BME280;10708;50.824;4.408;2023-03-14T10:24:20;98978.22;;;5.86;100.00
21100;BME280;10708;50.824;4.408;2023-03-14T10:29:22;98999.16;;;5.84;100.00
21100;BME280;10708;50.824;4.408;2023-03-14T10:34:29;99025.78;;;5.72;100.00
21100;BME280;10708;50.824;4.408;2023-03-14T10:39:42;99040.31;;;5.57;100.00
21100;BME280;10708;50.824;4.408;2023-03-14T10:44:53;99063.03;;;5.55;100.00
21100;BME280;10708;50.824;4.408;2023-03-14T10:50:23;99078.31;;;5.43;100.00
21100;BME280;10708;50.824;4.408;2023-03-14T10:55:25;99094.03;;;5.41;100.00
21100;BME280;10708;50.824;4.408;2023-03-14T11:00:28;99104.66;;;5.37;100.00
21100;BME280;10708;50.824;4.408;2023-03-14T11:05:38;99126.03;;;5.23;100.00
21100;BME280;10708;50.824;4.408;2023-03-14T11:10:45;99137.56;;;5.17;100.00
21100;BME280;10708;50.824;4.408;2023-03-14T11:15:57;99169.56;;;5.23;100.00
21100;BME280;10708;50.824;4.408;2023-03-14T11:21:08;99183.00;;;5.12;100.00
21100;BME280;10708;50.824;4.408;2023-03-14T11:26:24;99207.75;;;5.00;100.00
21100;BME280;10708;50.824;4.408;2023-03-14T11:31:29;99228.78;;;4.96;100.00
21100;BME280;10708;50.824;4.408;2023-03-14T11:36:39;99233.78;;;4.77;100.00
21100;BME280;10708;50.824;4.408;2023-03-14T11:41:44;99232.59;;;4.59;100.00
21100;BME280;10708;50.824;4.408;2023-03-14T11:46:50;99250.31;;;4.50;100.00
21100;BME280;10708;50.824;4.408;2023-03-14T11:51:59;99274.16;;;4.37;100.00
21100;BME280;10708;50.824;4.408;2023-03-14T11:57:10;99281.69;;;4.19;100.00
21100;BME280;10708;50.824;4.408;2023-03-14T12:02:21;99287.94;;;4.13;100.00
21100;BME280;10708;50.824;4.408;2023-03-14T12:07:31;99288.50;;;4.23;100.00
21100;BME280;10708;50.824;4.408;2023-03-14T12:12:37;99299.78;;;4.23;100.00
21100;BME280;10708;50.824;4.408;2023-03-14T12:17:41;99303.88;;;4.32;100.00
21100;BME280;10708;50.824;4.408;2023-03-14T12:22:46;99313.97;;;4.42;100.00
21100;BME280;10708;50.824;4.408;2023-03-14T12:28:05;99322.81;;;4.38;100.00
21100;BME280;10708;50.824;4.408;2023-03-14T12:33:29;99330.88;;;4.59;100.00
21100;BME280;10708;50.824;4.408;2023-03-14T12:38:45;99351.84;;;4.54;100.00
21100;BME280;10708;50.824;4.408;2023-03-14T12:43:50;99362.56;;;4.45;100.00
21100;BME280;10708;50.824;4.408;2023-03-14T12:49:03;99379.44;;;4.32;100.00
21100;BME280;10708;50.824;4.408;2023-03-14T12:54:29;99389.56;;;4.42;100.00
21100;BME280;10708;50.824;4.408;2023-03-14T12:59:37;99382.69;;;4.40;100.00
21100;BME280;10708;50.824;4.408;2023-03-14T13:04:44;99400.16;;;4.38;100.00
21100;BME280;10708;50.824;4.408;2023-03-14T13:10:03;99407.97;;;4.38;100.00
21100;BME280;10708;50.824;4.408;2023-03-14T13:15:23;99420.56;;;4.52;100.00
21100;BME280;10708;50.824;4.408;2023-03-14T13:20:31;99429.13;;;4.57;100.00
21100;BME280;10708;50.824;4.408;2023-03-14T13:25:37;99457.19;;;4.49;100.00
21100;BME280;10708;50.824;4.408;2023-03-14T13:30:41;99476.38;;;4.46;100.00
21100;BME280;10708;50.824;4.408;2023-03-14T13:35:45;99474.88;;;4.37;100.00
21100;BME280;10708;50.824;4.408;2023-03-14T13:40:50;99490.34;;;4.43;100.00
21100;BME280;10708;50.824;4.408;2023-03-14T13:45:55;99494.63;;;4.46;100.00
21100;BME280;10708;50.824;4.408;2023-03-14T13:51:01;99499.34;;;4.63;100.00
21100;BME280;10708;50.824;4.408;2023-03-14T13:56:08;99512.00;;;4.76;100.00
21100;BME280;10708;50.824;4.408;2023-03-14T14:01:14;99519.91;;;4.73;100.00
21100;BME280;10708;50.824;4.408;2023-03-14T14:06:28;99536.13;;;4.85;100.00
21100;BME280;10708;50.824;4.408;2023-03-14T14:11:38;99549.06;;;4.88;100.00
21100;BME280;10708;50.824;4.408;2023-03-14T14:16:43;99559.09;;;5.01;100.00
21100;BME280;10708;50.824;4.408;2023-03-14T14:21:46;99568.63;;;5.02;100.00
21100;BME280;10708;50.824;4.408;2023-03-14T14:26:52;99588.44;;;5.09;100.00
21100;BME280;10708;50.824;4.408;2023-03-14T14:32:03;99612.97;;;5.04;100.00
21100;BME280;10708;50.824;4.408;2023-03-14T14:37:18;99633.31;;;4.91;100.00
21100;BME280;10708;50.824;4.408;2023-03-14T14:42:25;99640.75;;;4.74;100.00
21100;BME280;10708;50.824;4.408;2023-03-14T14:47:29;99645.34;;;4.64;100.00
21100;BME280;10708;50.824;4.408;2023-03-14T14:52:36;99698.47;;;4.60;100.00
21100;BME280;10708;50.824;4.408;2023-03-14T14:57:48;99731.94;;;4.06;100.00
21100;BME280;10708;50.824;4.408;2023-03-14T15:02:52;99767.53;;;3.65;100.00
21100;BME280;10708;50.824;4.408;2023-03-14T15:07:56;99760.28;;;3.38;100.00
21100;BME280;10708;50.824;4.408;2023-03-14T15:13:00;99754.28;;;3.34;100.00
21100;BME280;10708;50.824;4.408;2023-03-14T15:18:11;99742.75;;;3.48;100.00
21100;BME280;10708;50.824;4.408;2023-03-14T15:23:17;99748.66;;;3.54;100.00
21100;BME280;10708;50.824;4.408;2023-03-14T15:28:22;99756.09;;;3.72;100.00
21100;BME280;10708;50.824;4.408;2023-03-14T15:33:26;99751.88;;;3.67;100.00
21100;BME280;10708;50.824;4.408;2023-03-14T15:38:29;99761.09;;;3.83;100.00
21100;BME280;10708;50.824;4.408;2023-03-14T15:43:32;99756.91;;;4.16;100.00
21100;BME280;10708;50.824;4.408;2023-03-14T15:48:35;99770.56;;;4.26;100.00
21100;BME280;10708;50.824;4.408;2023-03-14T15:53:37;99774.09;;;4.23;100.00
21100;BME280;10708;50.824;4.408;2023-03-14T15:58:41;99781.94;;;4.22;100.00
21100;BME280;10708;50.824;4.408;2023-03-14T16:03:47;99785.41;;;4.22;100.00
21100;BME280;10708;50.824;4.408;2023-03-14T16:08:50;99807.34;;;4.12;100.00
21100;BME280;10708;50.824;4.408;2023-03-14T16:13:56;99812.31;;;4.24;100.00
21100;BME280;10708;50.824;4.408;2023-03-14T16:18:59;99823.41;;;4.32;100.00
21100;BME280;10708;50.824;4.408;2023-03-14T16:24:01;99833.00;;;4.30;100.00
21100;BME280;10708;50.824;4.408;2023-03-14T16:29:08;99847.84;;;4.28;100.00
21100;BME280;10708;50.824;4.408;2023-03-14T16:34:10;99855.81;;;4.21;100.00
21100;BME280;10708;50.824;4.408;2023-03-14T16:39:13;99879.16;;;4.27;100.00
21100;BME280;10708;50.824;4.408;2023-03-14T16:44:16;99880.88;;;4.28;100.00
21100;BME280;10708;50.824;4.408;2023-03-14T16:49:19;99894.66;;;4.33;100.00
21100;BME280;10708;50.824;4.408;2023-03-14T16:54:21;99903.31;;;4.35;100.00
21100;BME280;10708;50.824;4.408;2023-03-14T16:59:25;99911.09;;;4.36;100.00
21100;BME280;10708;50.824;4.408;2023-03-14T17:04:28;99925.00;;;4.37;100.00
21100;BME280;10708;50.824;4.408;2023-03-14T17:09:31;99948.38;;;4.40;100.00
21100;BME280;10708;50.824;4.408;2023-03-14T17:14:34;99950.94;;;4.43;100.00
21100;BME280;10708;50.824;4.408;2023-03-14T17:19:37;99967.50;;;4.40;100.00
21100;BME280;10708;50.824;4.408;2023-03-14T17:24:39;99977.97;;;4.39;100.00
21100;BME280;10708;50.824;4.408;2023-03-14T17:29:43;99982.16;;;4.46;100.00
21100;BME280;10708;50.824;4.408;2023-03-14T17:34:46;100005.75;;;4.40;100.00
21100;BME280;10708;50.824;4.408;2023-03-14T17:39:48;100018.03;;;4.35;100.00
21100;BME280;10708;50.824;4.408;2023-03-14T17:44:52;100025.69;;;4.42;100.00
21100;BME280;10708;50.824;4.408;2023-03-14T17:49:54;100034.53;;;4.35;100.00
21100;BME280;10708;50.824;4.408;2023-03-14T17:54:57;100055.41;;;4.34;100.00
21100;BME280;10708;50.824;4.408;2023-03-14T18:00:00;100067.69;;;4.29;100.00
21100;BME280;10708;50.824;4.408;2023-03-14T18:05:13;100072.97;;;4.24;100.00
21100;BME280;10708;50.824;4.408;2023-03-14T18:10:15;100086.81;;;4.28;100.00
21100;BME280;10708;50.824;4.408;2023-03-14T18:15:21;100095.75;;;4.13;100.00
21100;BME280;10708;50.824;4.408;2023-03-14T18:20:23;100118.50;;;4.02;100.00
21100;BME280;10708;50.824;4.408;2023-03-14T18:25:26;100130.03;;;3.89;100.00
21100;BME280;10708;50.824;4.408;2023-03-14T18:30:30;100143.91;;;3.89;100.00
21100;BME280;10708;50.824;4.408;2023-03-14T18:35:32;100151.75;;;3.86;100.00
21100;BME280;10708;50.824;4.408;2023-03-14T18:40:35;100156.97;;;3.86;100.00
21100;BME280;10708;50.824;4.408;2023-03-14T18:45:39;100177.03;;;3.80;100.00
21100;BME280;10708;50.824;4.408;2023-03-14T18:50:41;100186.69;;;3.71;100.00
21100;BME280;10708;50.824;4.408;2023-03-14T18:55:43;100185.75;;;3.79;100.00
21100;BME280;10708;50.824;4.408;2023-03-14T19:00:48;100185.75;;;3.77;100.00
21100;BME280;10708;50.824;4.408;2023-03-14T19:05:54;100179.63;;;3.80;100.00
21100;BME280;10708;50.824;4.408;2023-03-14T19:10:56;100191.84;;;3.76;100.00
21100;BME280;10708;50.824;4.408;2023-03-14T19:16:03;100205.72;;;3.78;100.00
21100;BME280;10708;50.824;4.408;2023-03-14T19:21:07;100210.97;;;3.75;100.00
21100;BME280;10708;50.824;4.408;2023-03-14T19:26:10;100216.22;;;3.70;100.00
21100;BME280;10708;50.824;4.408;2023-03-14T19:31:17;100223.25;;;3.65;100.00
21100;BME280;10708;50.824;4.408;2023-03-14T19:36:24;100230.25;;;3.60;100.00
21100;BME280;10708;50.824;4.408;2023-03-14T19:41:28;100229.56;;;3.48;100.00
21100;BME280;10708;50.824;4.408;2023-03-14T19:46:32;100227.97;;;3.33;100.00
21100;BME280;10708;50.824;4.408;2023-03-14T19:51:36;100233.38;;;3.19;100.00
21100;BME280;10708;50.824;4.408;2023-03-14T19:56:38;100242.94;;;3.14;100.00
21100;BME280;10708;50.824;4.408;2023-03-14T20:01:42;100246.50;;;3.09;100.00
21100;BME280;10708;50.824;4.408;2023-03-14T20:06:47;100254.34;;;3.03;100.00
21100;BME280;10708;50.824;4.408;2023-03-14T20:11:49;100273.44;;;3.00;100.00
21100;BME280;10708;50.824;4.408;2023-03-14T20:16:53;100262.19;;;2.98;100.00
21100;BME280;10708;50.824;4.408;2023-03-14T20:21:55;100272.56;;;3.01;100.00
21100;BME280;10708;50.824;4.408;2023-03-14T20:26:58;100269.06;;;3.04;100.00
21100;BME280;10708;50.824;4.408;2023-03-14T20:32:02;100276.81;;;3.10;100.00
21100;BME280;10708;50.824;4.408;2023-03-14T20:37:06;100294.09;;;3.18;100.00
21100;BME280;10708;50.824;4.408;2023-03-14T20:42:09;100308.75;;;3.27;100.00
21100;BME280;10708;50.824;4.408;2023-03-14T20:47:12;100308.66;;;3.34;100.00
21100;BME280;10708;50.824;4.408;2023-03-14T20:52:15;100304.34;;;3.30;100.00
21100;BME280;10708;50.824;4.408;2023-03-14T20:57:17;100302.69;;;3.25;100.00
21100;BME280;10708;50.824;4.408;2023-03-14T21:02:21;100306.22;;;3.19;100.00
21100;BME280;10708;50.824;4.408;2023-03-14T21:07:23;100291.63;;;3.02;100.00
21100;BME280;10708;50.824;4.408;2023-03-14T21:12:26;100294.38;;;2.88;100.00
21100;BME280;10708;50.824;4.408;2023-03-14T21:17:30;100291.81;;;2.82;100.00
21100;BME280;10708;50.824;4.408;2023-03-14T21:22:32;100316.16;;;2.72;100.00
21100;BME280;10708;50.824;4.408;2023-03-14T21:27:37;100316.16;;;2.72;100.00
21100;BME280;10708;50.824;4.408;2023-03-14T21:32:40;100324.91;;;2.60;100.00
21100;BME280;10708;50.824;4.408;2023-03-14T21:37:43;100317.16;;;2.55;100.00
21100;BME280;10708;50.824;4.408;2023-03-14T21:42:46;100318.06;;;2.51;100.00
21100;BME280;10708;50.824;4.408;2023-03-14T21:47:50;100312.91;;;2.45;100.00
21100;BME280;10708;50.824;4.408;2023-03-14T21:52:53;100316.38;;;2.46;100.00
21100;BME280;10708;50.824;4.408;2023-03-14T21:57:57;100329.38;;;2.46;100.00
21100;BME280;10708;50.824;4.408;2023-03-14T22:03:00;100340.63;;;2.43;100.00
21100;BME280;10708;50.824;4.408;2023-03-14T22:08:03;100350.16;;;2.47;100.00
21100;BME280;10708;50.824;4.408;2023-03-14T22:13:05;100333.66;;;2.51;100.00
21100;BME280;10708;50.824;4.408;2023-03-14T22:18:09;100324.97;;;2.58;100.00
21100;BME280;10708;50.824;4.408;2023-03-14T22:23:12;100316.25;;;2.61;100.00
21100;BME280;10708;50.824;4.408;2023-03-14T22:28:15;100325.75;;;2.65;100.00
21100;BME280;10708;50.824;4.408;2023-03-14T22:33:19;100325.69;;;2.73;100.00
21100;BME280;10708;50.824;4.408;2023-03-14T22:38:22;100319.59;;;2.78;100.00
21100;BME280;10708;50.824;4.408;2023-03-14T22:43:24;100333.41;;;2.85;100.00
21100;BME280;10708;50.824;4.408;2023-03-14T22:48:28;100329.00;;;2.91;100.00
21100;BME280;10708;50.824;4.408;2023-03-14T22:53:31;100342.00;;;2.96;100.00
21100;BME280;10708;50.824;4.408;2023-03-14T22:58:33;100339.31;;;3.07;100.00
21100;BME280;10708;50.824;4.408;2023-03-14T23:03:37;100339.22;;;3.14;100.00
21100;BME280;10708;50.824;4.408;2023-03-14T23:08:39;100343.53;;;3.18;100.00
21100;BME280;10708;50.824;4.408;2023-03-14T23:13:42;100330.44;;;3.26;100.00
21100;BME280;10708;50.824;4.408;2023-03-14T23:18:46;100320.84;;;3.29;100.00
21100;BME280;10708;50.824;4.408;2023-03-14T23:23:48;100327.75;;;3.33;100.00
21100;BME280;10708;50.824;4.408;2023-03-14T23:28:52;100309.53;;;3.35;100.00
21100;BME280;10708;50.824;4.408;2023-03-14T23:33:57;100299.91;;;3.40;100.00
21100;BME280;10708;50.824;4.408;2023-03-14T23:38:59;100292.06;;;3.45;100.00
21100;BME280;10708;50.824;4.408;2023-03-14T23:44:01;100285.97;;;3.47;100.00
21100;BME280;10708;50.824;4.408;2023-03-14T23:49:05;100289.38;;;3.51;100.00
21100;BME280;10708;50.824;4.408;2023-03-14T23:54:08;100297.19;;;3.52;100.00
21100;BME280;10708;50.824;4.408;2023-03-14T23:59:10;100295.44;;;3.54;100.00
